Time;durP1;ratioP1;P1;durP2;ratioP2;P2;SDS_P1;SDS_P2;PMS_P1;PMS_P2;Temp;Humidity;BMP_temperature;BMP_pressure;BME280_temperature;BME280_humidity;BME280_pressure;Samples;Min_cycle;Max_cycle;Signal;HPM_P1;HPM_P2
2022/02/18 04:28:07;;;;;;;;;;;;;;;3.05;93.74;99103.66;4883583;29;19934;-79
2022/02/18 04:30:33;;;;;;;;;;;;;;;2.95;93.82;99096.91;4896444;29;20367;-80
2022/02/18 04:32:59;;;;;;;;;;;;;;;2.87;93.79;99098.84;4895076;29;19931;-80
2022/02/18 04:35:24;;;;;;;;;;;;;;;2.85;93.92;99096.25;4879657;29;20268;-79
2022/02/18 04:37:49;;;;;;;;;;;;;;;2.80;93.93;99092.03;4878434;29;20014;-80
2022/02/18 04:40:16;;;;;;;;;;;;;;;2.81;93.67;99086.75;4893500;29;20503;-84
2022/02/18 04:42:42;;;;;;;;;;;;;;;2.71;93.20;99078.25;4895084;29;19927;-82
2022/02/18 04:45:07;;;;;;;;;;;;;;;2.66;93.27;99077.47;4894811;29;19923;-79
2022/02/18 04:47:32;;;;;;;;;;;;;;;2.62;92.90;99067.16;4895890;29;19924;-80
2022/02/18 04:49:58;;;;;;;;;;;;;;;2.49;92.53;99071.75;4896044;29;19949;-83
2022/02/18 04:52:23;;;;;;;;;;;;;;;2.45;92.26;99059.66;4896267;29;19919;-80
2022/02/18 04:54:48;;;;;;;;;;;;;;;2.37;92.06;99062.44;4878791;29;19923;-79
2022/02/18 04:57:14;;;;;;;;;;;;;;;2.46;93.12;99053.53;4877867;29;19967;-79
2022/02/18 04:59:39;;;;;;;;;;;;;;;2.42;93.70;99054.50;4878706;29;19923;-80
2022/02/18 05:02:05;;;;;;;;;;;;;;;2.34;93.86;99050.25;4895120;29;19919;-79
2022/02/18 05:04:30;;;;;;;;;;;;;;;2.27;93.79;99045.22;4894929;29;19923;-79
2022/02/18 05:06:56;;;;;;;;;;;;;;;2.22;93.69;99039.22;4876498;29;20461;-80
2022/02/18 05:09:21;;;;;;;;;;;;;;;2.16;93.57;99032.38;4895525;29;19927;-80
2022/02/18 05:11:47;;;;;;;;;;;;;;;2.09;93.24;99029.03;4892207;29;19919;-79
2022/02/18 05:14:12;;;;;;;;;;;;;;;2.03;93.02;99034.38;4893397;29;19924;-82
2022/02/18 05:16:37;;;;;;;;;;;;;;;1.98;92.83;99024.00;4894376;29;19923;-78
2022/02/18 05:19:04;;;;;;;;;;;;;;;1.90;92.54;99017.19;4893715;29;20367;-78
2022/02/18 05:21:29;;;;;;;;;;;;;;;1.83;91.88;99021.69;4894563;29;20006;-78
2022/02/18 05:23:54;;;;;;;;;;;;;;;1.76;91.33;99017.50;4875359;29;20035;-79
2022/02/18 05:26:20;;;;;;;;;;;;;;;1.67;91.01;99021.13;4891643;29;20407;-79
2022/02/18 08:51:52;;;;;;;;;;;;;;;4.21;85.65;98672.44;5079524;23;19926;-86
2022/02/18 08:54:17;;;;;;;;;;;;;;;4.18;85.14;98661.16;4945762;28;20151;-83
2022/02/18 08:56:43;;;;;;;;;;;;;;;4.16;84.63;98665.59;4943619;28;20444;-82
2022/02/18 08:59:09;;;;;;;;;;;;;;;4.19;84.49;98662.00;4941060;28;19922;-84
2022/02/18 09:01:34;;;;;;;;;;;;;;;4.18;84.34;98657.69;4945108;28;19990;-83
2022/02/18 09:04:00;;;;;;;;;;;;;;;4.22;84.31;98653.19;4945583;28;19923;-83
2022/02/18 09:06:25;;;;;;;;;;;;;;;4.23;84.30;98640.03;4946663;28;20321;-86
2022/02/18 09:08:50;;;;;;;;;;;;;;;4.19;83.79;98648.91;4948198;29;19919;-82
2022/02/18 09:11:18;;;;;;;;;;;;;;;4.25;83.79;98638.19;4944731;28;20386;-85
2022/02/18 09:13:43;;;;;;;;;;;;;;;4.30;83.67;98635.41;4945829;28;20461;-91
2022/02/18 09:16:08;;;;;;;;;;;;;;;4.29;83.46;98628.44;4947549;28;20017;-85
2022/02/18 09:18:34;;;;;;;;;;;;;;;4.33;83.50;98630.06;4946145;29;20150;-89
2022/02/18 09:20:59;;;;;;;;;;;;;;;4.33;83.36;98619.56;4945490;29;19961;-88
2022/02/18 09:23:25;;;;;;;;;;;;;;;4.36;83.33;98625.56;4946770;28;19918;-89
2022/02/18 09:25:50;;;;;;;;;;;;;;;4.37;83.03;98605.41;4945245;29;19981;-83
2022/02/18 09:28:15;;;;;;;;;;;;;;;4.40;83.09;98614.94;4946271;28;19923;-86
2022/02/18 09:30:45;;;;;;;;;;;;;;;4.38;82.83;98608.91;4946988;28;19911;-86
2022/02/18 09:33:11;;;;;;;;;;;;;;;4.40;82.81;98593.97;4942024;28;20111;-90
2022/02/18 09:35:37;;;;;;;;;;;;;;;4.40;82.36;98594.81;4941833;28;19919;-88
2022/02/18 09:38:02;;;;;;;;;;;;;;;4.45;82.55;98594.66;4946285;29;19926;-87
2022/02/18 09:40:27;;;;;;;;;;;;;;;4.45;82.26;98592.03;4944361;28;20050;-87
2022/02/18 09:42:53;;;;;;;;;;;;;;;4.51;82.31;98591.81;4945538;29;19926;-89
2022/02/18 09:45:18;;;;;;;;;;;;;;;4.51;82.12;98581.31;4944386;28;19918;-83
2022/02/18 09:47:45;;;;;;;;;;;;;;;4.55;82.27;98580.28;4943126;28;19970;-82
2022/02/18 09:50:11;;;;;;;;;;;;;;;4.63;82.61;98575.59;4925976;29;20436;-86
2022/02/18 09:52:36;;;;;;;;;;;;;;;4.70;82.88;98581.47;4946429;29;20077;-83
2022/02/18 09:55:02;;;;;;;;;;;;;;;4.79;83.36;98575.03;4946403;28;19927;-84
2022/02/18 09:57:28;;;;;;;;;;;;;;;4.73;83.26;98581.34;4944972;28;20421;-82
2022/02/18 09:59:53;;;;;;;;;;;;;;;4.69;83.06;98570.13;4941363;28;19918;-83
2022/02/18 10:02:19;;;;;;;;;;;;;;;4.68;82.45;98559.69;4942176;28;19926;-87
2022/02/18 10:04:44;;;;;;;;;;;;;;;4.70;82.07;98561.31;4940307;29;20029;-82
2022/02/18 10:07:09;;;;;;;;;;;;;;;4.71;81.72;98556.94;4942333;28;19919;-87
2022/02/18 10:09:37;;;;;;;;;;;;;;;4.69;81.29;98551.75;4941588;29;20186;-86
2022/02/18 10:12:03;;;;;;;;;;;;;;;4.72;81.28;98542.91;4924885;29;20101;-83
2022/02/18 10:14:47;;;;;;;;;;;;;;;4.75;81.02;98547.19;4944254;29;20390;-86
2022/02/18 10:17:12;;;;;;;;;;;;;;;4.74;80.80;98551.59;4950693;28;19922;-83
2022/02/18 10:19:48;;;;;;;;;;;;;;;4.80;81.10;98538.19;4949587;28;20377;-84
2022/02/18 10:22:13;;;;;;;;;;;;;;;4.78;81.03;98547.91;4949685;28;19918;-86
2022/02/18 10:24:40;;;;;;;;;;;;;;;4.80;81.09;98551.31;4950912;28;19922;-83
2022/02/18 10:27:05;;;;;;;;;;;;;;;4.93;81.44;98541.22;4952195;28;19918;-84
2022/02/18 10:29:31;;;;;;;;;;;;;;;4.97;81.44;98534.06;4933291;29;19925;-85
2022/02/18 10:32:25;;;;;;;;;;;;;;;5.02;81.41;98542.63;4950094;28;20057;-82
2022/02/18 10:34:51;;;;;;;;;;;;;;;4.99;81.64;98546.19;4934391;28;20314;-92
2022/02/18 10:37:17;;;;;;;;;;;;;;;4.97;81.24;98536.69;4951638;29;19923;-83
2022/02/18 10:39:42;;;;;;;;;;;;;;;4.95;81.08;98533.28;4952634;28;19919;-89
2022/02/18 10:42:08;;;;;;;;;;;;;;;4.97;80.97;98523.56;4952848;29;20320;-93
2022/02/18 10:44:34;;;;;;;;;;;;;;;5.01;80.90;98515.50;4952684;28;19923;-86
2022/02/18 10:47:05;;;;;;;;;;;;;;;5.07;80.72;98517.03;4951856;28;20091;-92
2022/02/18 10:49:33;;;;;;;;;;;;;;;5.07;81.06;98517.03;4951566;28;19970;-92
2022/02/18 10:52:03;;;;;;;;;;;;;;;5.11;81.02;98520.41;4949492;29;20005;-82
2022/02/18 10:54:32;;;;;;;;;;;;;;;5.18;81.06;98521.84;4934703;28;19922;-93
2022/02/18 10:57:16;;;;;;;;;;;;;;;5.31;81.39;98511.69;4952326;28;20465;-90
2022/02/18 10:59:41;;;;;;;;;;;;;;;5.30;81.52;98533.59;4953437;28;20373;-88
2022/02/18 11:02:07;;;;;;;;;;;;;;;5.28;81.52;98521.41;4953509;28;19919;-82
2022/02/18 11:04:32;;;;;;;;;;;;;;;5.36;81.62;98512.34;4953820;28;19969;-92
2022/02/18 11:07:10;;;;;;;;;;;;;;;5.35;81.41;98501.00;4952318;29;20297;-82
2022/02/18 11:09:36;;;;;;;;;;;;;;;5.37;81.18;98498.28;4953880;29;19922;-85
2022/02/18 11:12:06;;;;;;;;;;;;;;;5.37;80.92;98487.78;4952098;28;20329;-83
2022/02/18 11:14:32;;;;;;;;;;;;;;;5.42;80.78;98483.19;4953199;28;19918;-82
2022/02/18 11:16:57;;;;;;;;;;;;;;;5.37;80.60;98479.91;4950965;29;19923;-80
2022/02/18 11:19:22;;;;;;;;;;;;;;;5.45;80.38;98469.91;4951207;29;20386;-81
2022/02/18 11:21:49;;;;;;;;;;;;;;;5.63;81.24;98482.28;4944254;28;19985;-81
2022/02/18 11:24:15;;;;;;;;;;;;;;;5.51;80.86;98474.91;4949621;28;20326;-81
2022/02/18 11:26:41;;;;;;;;;;;;;;;5.52;80.31;98481.00;4951234;29;19938;-82
2022/02/18 11:29:08;;;;;;;;;;;;;;;5.56;80.17;98475.56;4933862;29;19931;-86
2022/02/18 11:31:52;;;;;;;;;;;;;;;5.57;80.10;98466.78;4933336;28;19918;-82
2022/02/18 11:34:27;;;;;;;;;;;;;;;5.58;79.90;98460.56;4949969;28;19930;-85
2022/02/18 11:36:52;;;;;;;;;;;;;;;5.66;79.99;98465.50;4948440;29;19937;-82
2022/02/18 11:39:36;;;;;;;;;;;;;;;5.71;80.15;98447.78;4933675;28;19922;-81
2022/02/18 11:42:04;;;;;;;;;;;;;;;5.77;80.16;98459.78;4951159;29;19918;-82
2022/02/18 11:44:31;;;;;;;;;;;;;;;5.74;80.21;98449.41;4934542;29;20293;-86
2022/02/18 11:47:19;;;;;;;;;;;;;;;5.80;80.30;98438.63;4951815;28;19923;-81
2022/02/18 11:49:48;;;;;;;;;;;;;;;5.79;80.42;98424.63;4925334;29;19918;-88
2022/02/18 11:52:14;;;;;;;;;;;;;;;5.74;80.27;98428.38;4951407;29;20407;-86
2022/02/18 11:54:40;;;;;;;;;;;;;;;5.79;79.98;98424.63;4934695;29;19928;-81
2022/02/18 11:57:08;;;;;;;;;;;;;;;5.83;79.91;98412.19;4930329;29;20079;-81
2022/02/18 11:59:58;;;;;;;;;;;;;;;5.89;80.07;98430.31;4932258;29;19926;-86
2022/02/18 12:02:35;;;;;;;;;;;;;;;5.97;80.32;98422.97;4938039;29;19918;-82
2022/02/18 12:05:07;;;;;;;;;;;;;;;5.95;80.35;98424.78;4952315;28;20150;-82
2022/02/18 12:07:35;;;;;;;;;;;;;;;5.96;80.07;98423.00;4954774;28;19918;-81
2022/02/18 12:10:01;;;;;;;;;;;;;;;5.94;79.80;98428.34;4937330;29;20001;-84
2022/02/18 12:12:32;;;;;;;;;;;;;;;6.04;79.91;98417.44;4937682;28;19919;-81
2022/02/18 12:14:59;;;;;;;;;;;;;;;6.10;80.01;98415.38;4938553;29;20400;-84
2022/02/18 12:17:25;;;;;;;;;;;;;;;6.06;79.84;98402.44;4938970;29;20497;-85
2022/02/18 12:19:50;;;;;;;;;;;;;;;6.09;79.94;98408.38;4954402;28;19918;-82
2022/02/18 12:22:30;;;;;;;;;;;;;;;6.05;79.78;98395.44;4956514;28;20429;-84
2022/02/18 12:24:58;;;;;;;;;;;;;;;6.11;79.72;98385.53;4939069;29;19925;-83
2022/02/18 12:27:23;;;;;;;;;;;;;;;6.16;79.80;98377.41;4938875;29;19918;-81
2022/02/18 12:29:52;;;;;;;;;;;;;;;6.20;79.78;98378.13;4956457;29;20206;-86
2022/02/18 12:32:18;;;;;;;;;;;;;;;6.26;79.66;98383.94;4955936;28;19918;-82
2022/02/18 12:34:44;;;;;;;;;;;;;;;6.27;79.74;98384.78;4953195;29;20424;-81
2022/02/18 12:37:16;;;;;;;;;;;;;;;5.60;78.74;98386.94;4955223;29;19918;-84
2022/02/18 12:39:45;;;;;;;;;;;;;;;4.34;79.95;98395.72;4955569;29;20342;-87
2022/02/18 12:42:14;;;;;;;;;;;;;;;3.96;80.54;98398.09;4955314;28;19974;-88
2022/02/18 12:44:55;;;;;;;;;;;;;;;3.73;81.15;98396.31;4955762;28;20459;-86
2022/02/18 12:47:23;;;;;;;;;;;;;;;3.51;81.49;98398.88;4955330;28;20013;-82
2022/02/18 12:49:49;;;;;;;;;;;;;;;4.02;85.89;98405.72;4954639;28;19926;-84
2022/02/18 12:52:16;;;;;;;;;;;;;;;4.79;91.32;98386.06;4955613;29;19946;-82
2022/02/18 12:54:49;;;;;;;;;;;;;;;5.27;94.28;98382.28;4937380;29;19923;-81
2022/02/18 12:57:15;;;;;;;;;;;;;;;5.64;95.24;98383.25;4955229;28;19919;-83
2022/02/18 12:59:41;;;;;;;;;;;;;;;5.83;94.94;98383.28;4955346;28;19918;-82
2022/02/18 13:02:06;;;;;;;;;;;;;;;5.81;93.40;98374.63;4938461;29;20333;-82
2022/02/18 13:04:32;;;;;;;;;;;;;;;5.78;92.27;98380.00;4955445;29;19926;-85
2022/02/18 13:06:57;;;;;;;;;;;;;;;5.72;90.92;98388.19;4954320;28;19922;-88
2022/02/18 13:09:25;;;;;;;;;;;;;;;5.53;89.90;98362.72;4955470;29;20005;-82
2022/02/18 13:11:50;;;;;;;;;;;;;;;5.44;89.56;98363.13;4937519;29;19923;-87
2022/02/18 13:14:16;;;;;;;;;;;;;;;5.56;90.33;98346.81;4954034;29;20349;-82
2022/02/18 13:16:44;;;;;;;;;;;;;;;5.68;91.88;98344.53;4955570;28;19922;-85
2022/02/18 13:19:14;;;;;;;;;;;;;;;5.73;94.03;98329.44;4955134;28;19933;-83
2022/02/18 13:21:40;;;;;;;;;;;;;;;6.09;97.43;98315.50;4934616;29;19929;-81
2022/02/18 13:24:05;;;;;;;;;;;;;;;6.34;100.00;98310.75;4955062;28;19926;-82
2022/02/18 13:26:30;;;;;;;;;;;;;;;6.54;100.00;98303.66;4955156;28;19919;-88
2022/02/18 13:28:59;;;;;;;;;;;;;;;6.66;100.00;98303.03;4954480;28;19927;-87
2022/02/18 13:31:24;;;;;;;;;;;;;;;6.76;100.00;98276.25;4953808;28;19919;-88
2022/02/18 13:33:51;;;;;;;;;;;;;;;6.90;100.00;98285.13;4955193;29;19919;-87
2022/02/18 13:36:17;;;;;;;;;;;;;;;6.97;100.00;98277.75;4953122;29;19961;-87
2022/02/18 13:38:57;;;;;;;;;;;;;;;7.07;100.00;98262.34;4954459;28;19918;-82
2022/02/18 13:41:27;;;;;;;;;;;;;;;7.15;100.00;98268.06;4954908;28;20253;-87
2022/02/18 13:43:56;;;;;;;;;;;;;;;7.19;100.00;98263.47;4954357;29;20009;-85
2022/02/18 13:46:27;;;;;;;;;;;;;;;7.19;100.00;98253.78;4936941;29;20350;-84
2022/02/18 13:48:52;;;;;;;;;;;;;;;7.28;100.00;98247.19;4952253;28;19926;-83
2022/02/18 13:51:22;;;;;;;;;;;;;;;7.33;100.00;98234.59;4951481;29;19927;-89
2022/02/18 13:53:48;;;;;;;;;;;;;;;7.38;100.00;98229.09;4953942;28;19922;-85
2022/02/18 13:56:20;;;;;;;;;;;;;;;7.43;100.00;98219.97;4953902;28;19921;-84
2022/02/18 13:58:45;;;;;;;;;;;;;;;7.51;100.00;98216.09;4954665;28;19922;-82
2022/02/18 14:01:11;;;;;;;;;;;;;;;7.54;100.00;98208.00;4942650;28;19914;-83
2022/02/18 14:03:50;;;;;;;;;;;;;;;7.61;100.00;98204.94;4918218;29;19922;-90
2022/02/18 14:06:16;;;;;;;;;;;;;;;7.61;100.00;98185.63;4916850;29;19969;-82
2022/02/18 14:08:41;;;;;;;;;;;;;;;7.70;100.00;98179.84;4935261;29;19927;-82
2022/02/18 14:11:08;;;;;;;;;;;;;;;7.73;100.00;98163.84;4935165;29;19919;-82
2022/02/18 14:13:33;;;;;;;;;;;;;;;7.82;100.00;98180.94;4935155;29;19919;-89
2022/02/18 14:16:05;;;;;;;;;;;;;;;7.89;100.00;98168.25;4933841;29;19922;-83
2022/02/18 14:18:31;;;;;;;;;;;;;;;7.89;100.00;98166.47;4934511;29;19930;-83
2022/02/18 14:21:00;;;;;;;;;;;;;;;7.95;100.00;98179.28;4933764;29;19919;-83
2022/02/18 14:23:34;;;;;;;;;;;;;;;7.96;100.00;98175.72;4933775;29;19974;-82
2022/02/18 14:26:00;;;;;;;;;;;;;;;7.40;100.00;98162.19;4933852;29;20850;-81
2022/02/18 14:28:27;;;;;;;;;;;;;;;5.74;100.00;98160.28;4934901;29;20009;-82
2022/02/18 14:30:56;;;;;;;;;;;;;;;4.82;100.00;98181.22;4934730;29;20417;-83
2022/02/18 14:33:22;;;;;;;;;;;;;;;4.28;98.64;98180.97;4934244;29;19938;-81
2022/02/18 14:35:48;;;;;;;;;;;;;;;4.10;97.34;98188.69;4932874;29;19926;-85
2022/02/18 14:38:13;;;;;;;;;;;;;;;4.06;96.90;98189.72;4934695;29;19922;-85
2022/02/18 14:40:42;;;;;;;;;;;;;;;3.87;95.92;98192.25;4934483;29;19918;-82
2022/02/18 14:43:08;;;;;;;;;;;;;;;3.75;95.56;98185.75;4913939;29;19942;-87
2022/02/18 14:45:34;;;;;;;;;;;;;;;3.71;95.27;98186.78;4915957;29;19946;-83
2022/02/18 14:48:00;;;;;;;;;;;;;;;3.42;94.68;98180.94;4916163;29;20009;-91
2022/02/18 14:50:29;;;;;;;;;;;;;;;3.39;94.65;98198.53;4915253;29;19934;-88
2022/02/18 14:52:59;;;;;;;;;;;;;;;3.54;94.93;98170.88;4916959;29;20302;-85
2022/02/18 14:55:25;;;;;;;;;;;;;;;3.26;93.82;98180.69;4933500;29;20079;-90
2022/02/18 14:57:50;;;;;;;;;;;;;;;3.12;93.49;98176.91;4932577;29;20433;-90
2022/02/18 15:00:16;;;;;;;;;;;;;;;3.09;93.20;98176.13;4917115;29;19927;-91
2022/02/18 15:02:41;;;;;;;;;;;;;;;3.04;92.71;98167.56;4933671;29;20001;-88
2022/02/18 15:05:06;;;;;;;;;;;;;;;3.07;92.74;98175.31;4932381;29;20179;-87
2022/02/18 15:07:32;;;;;;;;;;;;;;;3.01;92.34;98167.69;4934437;29;19919;-87
2022/02/18 15:09:57;;;;;;;;;;;;;;;2.87;91.79;98167.34;4934329;29;19919;-84
2022/02/18 15:12:23;;;;;;;;;;;;;;;2.88;91.42;98171.69;4934398;29;19942;-90
2022/02/18 15:14:48;;;;;;;;;;;;;;;2.90;91.16;98170.72;4934318;29;19966;-88
2022/02/18 15:17:15;;;;;;;;;;;;;;;2.77;90.56;98171.22;4916673;29;20006;-91
2022/02/18 15:19:40;;;;;;;;;;;;;;;2.76;90.14;98169.50;4934114;29;19918;-84
2022/02/18 15:22:05;;;;;;;;;;;;;;;2.82;90.46;98185.84;4932903;29;20005;-87
2022/02/18 15:24:31;;;;;;;;;;;;;;;2.74;90.18;98172.19;4917067;29;19926;-87
2022/02/18 15:26:56;;;;;;;;;;;;;;;2.69;89.96;98185.44;4934138;29;19926;-83
2022/02/18 15:34:49;;;;;;;;;;;;;;;2.49;89.15;98174.81;4934888;29;19930;-83
2022/02/18 15:37:14;;;;;;;;;;;;;;;2.46;88.92;98188.03;4920987;29;20711;-87
2022/02/18 15:42:23;;;;;;;;;;;;;;;2.25;88.54;98187.88;4935816;29;20385;-87
2022/02/18 15:44:50;;;;;;;;;;;;;;;2.30;88.62;98206.88;4937613;29;19923;-89
2022/02/18 15:47:16;;;;;;;;;;;;;;;2.16;88.58;98306.63;4920701;29;20394;-91
2022/02/18 15:49:42;;;;;;;;;;;;;;;2.18;88.79;98332.72;4937572;29;19919;-90
2022/02/18 15:52:08;;;;;;;;;;;;;;;2.27;90.11;98337.66;4936355;29;19974;-86
2022/02/18 15:54:34;;;;;;;;;;;;;;;2.24;90.00;98378.72;4937417;29;19919;-85
2022/02/18 15:57:00;;;;;;;;;;;;;;;2.13;89.61;98374.69;4937518;29;19922;-85
2022/02/18 15:59:26;;;;;;;;;;;;;;;2.19;89.62;98378.88;4935843;29;20382;-90
2022/02/18 16:01:51;;;;;;;;;;;;;;;2.19;88.85;98376.25;4937308;29;19977;-84
2022/02/18 16:04:24;;;;;;;;;;;;;;;2.13;88.82;98368.59;4937327;29;19927;-89
2022/02/18 16:06:50;;;;;;;;;;;;;;;2.07;88.19;98374.03;4935335;29;19918;-84
2022/02/18 16:09:15;;;;;;;;;;;;;;;1.90;87.76;98367.56;4937361;29;20408;-85
2022/02/18 16:11:40;;;;;;;;;;;;;;;1.79;87.60;98361.81;4936788;29;20386;-87
2022/02/18 16:14:06;;;;;;;;;;;;;;;1.91;87.28;98348.34;4935977;29;20022;-84
2022/02/18 16:16:31;;;;;;;;;;;;;;;1.76;87.14;98349.69;4936856;29;20017;-84
2022/02/18 16:18:56;;;;;;;;;;;;;;;1.72;86.68;98352.44;4936576;29;19921;-83
2022/02/18 16:21:24;;;;;;;;;;;;;;;1.58;86.47;98335.44;4934403;29;19918;-85
2022/02/18 16:23:52;;;;;;;;;;;;;;;1.69;86.87;98349.91;4918508;29;20360;-84
2022/02/18 16:26:17;;;;;;;;;;;;;;;1.95;88.04;98360.44;4935485;29;20009;-87
2022/02/18 16:28:42;;;;;;;;;;;;;;;2.03;89.91;98367.16;4933752;29;20025;-89
2022/02/18 16:31:11;;;;;;;;;;;;;;;2.31;92.22;98368.03;4917286;29;19983;-86
2022/02/18 16:33:36;;;;;;;;;;;;;;;2.69;94.81;98394.66;4935082;29;19934;-84
2022/02/18 16:36:02;;;;;;;;;;;;;;;2.82;96.88;98386.44;4914383;29;19926;-84
2022/02/18 16:38:27;;;;;;;;;;;;;;;3.06;98.36;98389.97;4934771;29;19918;-85
2022/02/18 16:40:54;;;;;;;;;;;;;;;3.01;99.21;98404.97;4934033;29;20445;-86
2022/02/18 16:43:19;;;;;;;;;;;;;;;3.15;99.58;98404.50;4933843;29;19974;-91
2022/02/18 16:45:44;;;;;;;;;;;;;;;3.21;100.00;98420.84;4935905;29;19919;-86
2022/02/18 16:48:10;;;;;;;;;;;;;;;3.26;100.00;98411.06;4919152;29;20345;-88
2022/02/18 16:50:35;;;;;;;;;;;;;;;3.28;100.00;98414.47;4918705;29;19977;-87
2022/02/18 16:53:00;;;;;;;;;;;;;;;3.38;100.00;98406.31;4918626;29;20278;-90
2022/02/18 16:55:26;;;;;;;;;;;;;;;3.56;100.00;98433.63;4935931;29;20347;-89
2022/02/18 16:57:51;;;;;;;;;;;;;;;3.49;100.00;98426.88;4936732;29;19973;-87
2022/02/18 17:00:16;;;;;;;;;;;;;;;3.44;100.00;98435.75;4935001;29;20343;-92
2022/02/18 17:02:42;;;;;;;;;;;;;;;3.43;100.00;98446.28;4935577;29;20366;-86
2022/02/18 17:05:08;;;;;;;;;;;;;;;3.41;100.00;98437.63;4935192;29;19927;-90
2022/02/18 17:07:37;;;;;;;;;;;;;;;3.44;100.00;98442.75;4935838;29;19927;-92
2022/02/18 17:10:02;;;;;;;;;;;;;;;3.43;100.00;98457.63;4936336;29;19927;-93
2022/02/18 17:12:28;;;;;;;;;;;;;;;3.47;100.00;98465.38;4933524;29;19923;-88
2022/02/18 17:14:53;;;;;;;;;;;;;;;3.56;100.00;98463.28;4936072;29;20014;-87
2022/02/18 17:17:22;;;;;;;;;;;;;;;3.62;100.00;98485.75;4935468;29;19929;-90
2022/02/18 17:19:47;;;;;;;;;;;;;;;3.62;100.00;98477.91;4934784;29;19922;-91
2022/02/18 17:22:12;;;;;;;;;;;;;;;3.64;100.00;98484.81;4935106;29;19943;-84
2022/02/18 17:24:37;;;;;;;;;;;;;;;3.70;100.00;98503.84;4935989;29;20006;-93
2022/02/18 17:27:03;;;;;;;;;;;;;;;3.74;100.00;98493.19;4918712;29;19926;-93
2022/02/18 17:29:28;;;;;;;;;;;;;;;3.73;100.00;98488.84;4930848;29;20005;-87
2022/02/18 17:31:53;;;;;;;;;;;;;;;3.73;100.00;98493.25;4931903;29;19934;-92
2022/02/18 17:34:19;;;;;;;;;;;;;;;3.77;100.00;98507.97;4935590;29;19926;-85
2022/02/18 17:36:44;;;;;;;;;;;;;;;3.75;100.00;98513.25;4916486;29;19965;-87
2022/02/18 17:39:09;;;;;;;;;;;;;;;3.79;100.00;98519.25;4917628;29;20009;-84
2022/02/18 17:41:35;;;;;;;;;;;;;;;3.84;100.00;98527.78;4933989;29;19926;-87
2022/02/18 17:44:00;;;;;;;;;;;;;;;3.88;100.00;98544.25;4936028;29;20499;-93
2022/02/18 17:46:28;;;;;;;;;;;;;;;3.86;100.00;98553.94;4935239;29;19931;-89
2022/02/18 17:48:57;;;;;;;;;;;;;;;3.82;99.92;98540.94;4918681;29;19919;-93
2022/02/18 17:51:22;;;;;;;;;;;;;;;3.87;99.46;98551.28;4934631;29;19945;-87
2022/02/18 17:53:48;;;;;;;;;;;;;;;3.86;99.03;98561.81;4934251;29;19990;-87
2022/02/18 17:56:14;;;;;;;;;;;;;;;3.91;98.48;98558.13;4934757;29;20018;-88
2022/02/18 17:58:39;;;;;;;;;;;;;;;4.01;97.82;98561.28;4917526;29;20013;-85
2022/02/18 18:01:06;;;;;;;;;;;;;;;4.02;96.87;98572.59;4933005;29;19933;-84
2022/02/18 18:03:31;;;;;;;;;;;;;;;3.97;96.51;98578.00;4918262;29;20281;-86
2022/02/18 18:06:00;;;;;;;;;;;;;;;4.06;96.07;98575.06;4933785;29;20010;-86
2022/02/18 18:08:26;;;;;;;;;;;;;;;3.99;95.12;98584.06;4932433;29;19927;-88
2022/02/18 18:10:51;;;;;;;;;;;;;;;4.00;94.94;98591.88;4911036;29;19923;-86
2022/02/18 18:13:17;;;;;;;;;;;;;;;4.04;94.20;98604.84;4920441;29;20045;-87
2022/02/18 18:15:42;;;;;;;;;;;;;;;4.06;93.83;98605.69;4924340;29;19930;-84
2022/02/18 18:18:08;;;;;;;;;;;;;;;4.05;93.50;98607.41;4909174;29;19930;-86
2022/02/18 18:20:33;;;;;;;;;;;;;;;4.08;92.72;98622.19;4924136;29;19923;-88
2022/02/18 18:22:58;;;;;;;;;;;;;;;4.10;92.29;98613.38;4923741;29;20335;-89
2022/02/18 18:25:24;;;;;;;;;;;;;;;4.11;91.74;98619.47;4908357;29;19935;-85
2022/02/18 18:27:49;;;;;;;;;;;;;;;4.06;91.23;98637.13;4922504;29;19922;-84
2022/02/18 18:30:14;;;;;;;;;;;;;;;4.09;90.77;98623.91;4923255;29;20037;-89
2022/02/18 18:32:39;;;;;;;;;;;;;;;4.21;90.84;98633.09;4923824;29;20522;-85
2022/02/18 18:35:05;;;;;;;;;;;;;;;4.26;90.33;98639.91;4923934;29;20203;-85
2022/02/18 18:37:30;;;;;;;;;;;;;;;4.19;89.73;98654.13;4924664;29;20446;-87
2022/02/18 18:39:56;;;;;;;;;;;;;;;4.18;88.97;98653.28;4922551;29;20021;-87
2022/02/18 18:42:21;;;;;;;;;;;;;;;4.25;88.61;98661.78;4920787;29;19933;-91
2022/02/18 18:44:47;;;;;;;;;;;;;;;4.26;88.02;98670.50;4905704;29;19922;-86
2022/02/18 18:47:13;;;;;;;;;;;;;;;4.24;87.60;98680.19;4922729;29;19957;-84
2022/02/18 18:49:39;;;;;;;;;;;;;;;4.23;87.32;98676.72;4922935;29;20637;-88
2022/02/18 18:52:05;;;;;;;;;;;;;;;4.23;87.28;98691.59;4906958;29;19930;-88
2022/02/18 18:54:30;;;;;;;;;;;;;;;4.26;87.20;98689.75;4924581;29;19931;-84
2022/02/18 18:56:55;;;;;;;;;;;;;;;4.26;86.82;98694.09;4930984;29;19938;-85
2022/02/18 18:59:22;;;;;;;;;;;;;;;4.23;86.54;98691.59;4924431;29;19923;-83
2022/02/18 19:01:47;;;;;;;;;;;;;;;4.26;86.32;98707.22;4919967;29;19922;-88
2022/02/18 19:04:15;;;;;;;;;;;;;;;4.27;85.78;98708.94;4924211;29;19929;-85
2022/02/18 19:06:40;;;;;;;;;;;;;;;4.28;85.59;98705.44;4916186;29;19930;-92
2022/02/18 19:09:08;;;;;;;;;;;;;;;4.27;85.59;98711.56;4901820;29;19926;-87
2022/02/18 19:11:35;;;;;;;;;;;;;;;4.30;85.38;98714.09;4923114;29;19958;-86
2022/02/18 19:14:05;;;;;;;;;;;;;;;4.29;85.25;98718.50;4923374;29;19927;-90
2022/02/18 19:16:30;;;;;;;;;;;;;;;4.30;84.99;98709.69;4915177;29;20294;-84
2022/02/18 19:18:57;;;;;;;;;;;;;;;4.32;84.40;98714.88;4919718;29;19927;-87
2022/02/18 19:21:23;;;;;;;;;;;;;;;4.34;84.15;98728.78;4920528;29;19931;-88
2022/02/18 19:23:48;;;;;;;;;;;;;;;4.41;83.77;98734.72;4900542;29;19927;-92
2022/02/18 19:26:13;;;;;;;;;;;;;;;4.38;83.66;98729.56;4904446;29;19926;-85
2022/02/18 19:28:39;;;;;;;;;;;;;;;4.40;83.47;98735.59;4902313;29;20490;-86
2022/02/18 19:31:04;;;;;;;;;;;;;;;4.39;83.20;98750.50;4922237;29;19923;-85
2022/02/18 19:33:29;;;;;;;;;;;;;;;4.41;83.02;98737.34;4922823;29;19954;-88
2022/02/18 19:35:55;;;;;;;;;;;;;;;4.37;82.95;98768.03;4918868;29;19975;-87
2022/02/18 19:38:20;;;;;;;;;;;;;;;4.40;82.78;98760.06;4903645;29;19931;-89
2022/02/18 19:40:45;;;;;;;;;;;;;;;4.42;82.67;98760.00;4925210;29;20009;-88
2022/02/18 19:43:11;;;;;;;;;;;;;;;4.50;82.78;98769.34;4923048;29;20418;-84
2022/02/18 19:45:36;;;;;;;;;;;;;;;4.48;82.58;98779.03;4920520;29;19933;-87
2022/02/18 19:48:02;;;;;;;;;;;;;;;4.51;82.34;98785.94;4922893;29;19926;-91
2022/02/18 19:50:27;;;;;;;;;;;;;;;4.54;82.25;98789.31;4902352;29;19927;-86
2022/02/18 19:52:52;;;;;;;;;;;;;;;4.49;81.87;98801.72;4919084;29;19958;-86
2022/02/18 19:55:18;;;;;;;;;;;;;;;4.54;81.61;98830.44;4918947;29;19937;-89
2022/02/18 19:57:43;;;;;;;;;;;;;;;4.57;81.46;98813.75;4903501;29;19923;-84
2022/02/18 20:00:08;;;;;;;;;;;;;;;4.64;80.88;98817.84;4920890;29;20014;-89
2022/02/18 20:02:33;;;;;;;;;;;;;;;4.65;80.89;98854.53;4920942;29;19927;-87
2022/02/18 20:04:59;;;;;;;;;;;;;;;4.72;80.70;98829.81;4920623;29;20518;-85
2022/02/18 20:07:25;;;;;;;;;;;;;;;4.62;80.10;98828.41;4918291;29;20003;-87
2022/02/18 20:09:51;;;;;;;;;;;;;;;4.63;79.92;98843.25;4902585;29;19934;-89
2022/02/18 20:12:18;;;;;;;;;;;;;;;4.55;79.54;98851.38;4902732;29;19978;-84
2022/02/18 20:14:43;;;;;;;;;;;;;;;4.58;79.30;98866.16;4921938;29;20589;-87
2022/02/18 20:17:08;;;;;;;;;;;;;;;4.56;79.04;98862.72;4905434;29;19933;-89
2022/02/18 20:19:34;;;;;;;;;;;;;;;4.52;78.44;98866.38;4910860;29;20796;-84
2022/02/18 20:22:01;;;;;;;;;;;;;;;4.60;78.91;98876.63;4914171;29;19958;-86
2022/02/18 20:24:26;;;;;;;;;;;;;;;4.61;78.24;98870.44;4904604;29;20234;-89
2022/02/18 20:26:52;;;;;;;;;;;;;;;4.70;77.66;98891.13;4900253;29;19923;-85
2022/02/18 20:29:18;;;;;;;;;;;;;;;4.60;77.43;98898.44;4920689;29;19970;-92
2022/02/18 20:31:45;;;;;;;;;;;;;;;4.63;77.46;98897.50;4922246;29;19930;-86
2022/02/18 20:34:10;;;;;;;;;;;;;;;4.59;77.31;98909.00;4921930;29;19937;-84
2022/02/18 20:36:35;;;;;;;;;;;;;;;4.62;77.66;98906.28;4922362;29;19930;-89
2022/02/18 20:39:01;;;;;;;;;;;;;;;4.61;77.70;98912.41;4904250;29;19934;-85
2022/02/18 20:41:26;;;;;;;;;;;;;;;4.58;77.50;98909.88;4925686;29;19945;-93
2022/02/18 20:43:51;;;;;;;;;;;;;;;4.62;77.17;98911.53;4923555;29;19981;-86
2022/02/18 20:46:17;;;;;;;;;;;;;;;4.64;77.56;98917.56;4922063;29;20029;-88
2022/02/18 20:48:42;;;;;;;;;;;;;;;4.67;76.89;98922.72;4919025;29;19958;-85
2022/02/18 20:51:07;;;;;;;;;;;;;;;4.63;76.57;98936.88;4916335;29;20707;-86